createdAt,value
2022-08-10T00:01:34.562Z,25.80
2022-08-10T00:04:01.823Z,25.70
2022-08-10T00:06:28.699Z,25.60
2022-08-10T00:09:33.222Z,25.60
2022-08-10T00:12:19.725Z,25.40
2022-08-10T00:14:46.773Z,25.60
2022-08-10T00:17:13.911Z,25.60
2022-08-10T00:49:31.051Z,25.50
2022-08-10T00:51:57.980Z,25.40
2022-08-10T00:54:25.278Z,25.30
2022-08-10T01:12:40.506Z,24.40
2022-08-10T01:15:19.221Z,24.30
2022-08-10T01:17:51.608Z,24.40
2022-08-10T01:20:31.071Z,24.20
2022-08-10T01:23:19.692Z,24.40
2022-08-10T01:26:11.800Z,24.70
2022-08-10T01:29:35.895Z,24.60
2022-08-10T01:32:04.788Z,24.60
2022-08-10T01:34:39.585Z,24.30
2022-08-10T01:37:26.722Z,24.20
2022-08-10T01:39:56.452Z,24.60
2022-08-10T01:42:24.136Z,24.60
2022-08-10T01:44:56.694Z,24.40
2022-08-10T01:48:02.835Z,24.10
2022-08-10T01:50:59.487Z,23.90
2022-08-10T01:53:40.155Z,23.70
2022-08-10T01:56:09.460Z,23.30
2022-08-10T01:58:36.925Z,23.10
2022-08-10T02:01:04.618Z,22.90
2022-08-10T02:03:31.939Z,22.70
2022-08-10T02:06:01.386Z,22.40
2022-08-10T02:08:29.290Z,22.20
2022-08-10T02:10:58.928Z,22.20
2022-08-10T02:13:27.354Z,22.00
2022-08-10T02:16:01.437Z,21.90
2022-08-10T02:18:30.766Z,22.10
2022-08-10T02:21:00.536Z,21.90
2022-08-10T02:23:29.525Z,21.80
2022-08-10T02:25:58.219Z,21.70
2022-08-10T02:32:44.303Z,21.40
2022-08-10T02:35:22.198Z,21.30
2022-08-10T02:37:51.525Z,21.30
2022-08-10T02:42:18.589Z,21.30
2022-08-10T02:45:24.219Z,21.30
2022-08-10T02:46:01.223Z,21.30
2022-08-10T02:48:35.019Z,21.10
2022-08-10T02:51:05.571Z,21.10
2022-08-10T02:53:55.043Z,21.00
2022-08-10T02:56:43.677Z,21.10
2022-08-10T02:59:15.684Z,20.90
2022-08-10T03:01:46.678Z,20.80
2022-08-10T03:04:19.787Z,20.90
2022-08-10T03:07:10.797Z,20.80
2022-08-10T03:09:38.845Z,20.70
2022-08-10T03:12:36.131Z,20.70
2022-08-10T03:14:54.857Z,20.60
2022-08-10T03:17:22.425Z,20.50
2022-08-10T03:20:33.994Z,20.50
2022-08-10T03:22:38.143Z,20.60
2022-08-10T03:25:05.682Z,21.60
2022-08-10T03:27:32.756Z,21.70
2022-08-10T03:30:37.372Z,21.90
2022-08-10T03:33:05.412Z,21.70
2022-08-10T03:35:32.382Z,23.30
2022-08-10T03:38:00.391Z,23.00
2022-08-10T03:40:45.095Z,22.60
2022-08-10T03:43:15.864Z,22.40
2022-08-10T03:45:55.469Z,22.70
2022-08-10T03:48:24.341Z,23.10
2022-08-10T03:50:59.843Z,22.70
2022-08-10T03:54:05.734Z,22.40
2022-08-10T03:56:28.037Z,22.10
2022-08-10T03:58:58.364Z,22.80
2022-08-10T04:02:42.172Z,22.60
2022-08-10T04:04:14.628Z,22.40
2022-08-10T04:06:43.487Z,21.90
2022-08-10T04:09:10.503Z,21.60
2022-08-10T04:11:37.453Z,21.30
2022-08-10T04:14:38.130Z,21.20
2022-08-10T04:16:55.125Z,21.00
2022-08-10T04:19:22.660Z,20.70
2022-08-10T04:21:56.973Z,20.60
2022-08-10T04:24:31.959Z,20.50
2022-08-10T04:27:01.073Z,20.40
2022-08-10T04:33:46.622Z,20.30
2022-08-10T04:36:15.431Z,20.30
2022-08-10T04:38:43.259Z,20.30
2022-08-10T04:41:10.237Z,20.40
2022-08-10T04:43:37.056Z,20.30
2022-08-10T04:46:03.992Z,20.20
2022-08-10T04:48:59.549Z,20.20
2022-08-10T04:51:27.836Z,20.10
2022-08-10T04:54:05.682Z,20.00
2022-08-10T04:56:38.062Z,20.00
2022-08-10T04:59:09.749Z,20.00
2022-08-10T05:02:22.541Z,20.10
2022-08-10T05:04:37.949Z,20.10
2022-08-10T05:07:07.420Z,20.20
2022-08-10T05:09:34.436Z,20.30
2022-08-10T05:12:21.425Z,20.30
2022-08-10T05:14:48.466Z,20.30
2022-08-10T05:17:15.810Z,20.40
2022-08-10T05:20:03.647Z,20.30
2022-08-10T05:22:29.891Z,20.50
2022-08-10T05:24:56.581Z,20.50
2022-08-10T05:27:23.813Z,20.50
2022-08-10T05:30:01.580Z,20.50
2022-08-10T05:32:30.524Z,20.60
2022-08-10T05:34:58.488Z,20.60
2022-08-10T05:38:12.128Z,20.80
2022-08-10T05:42:41.279Z,21.10
2022-08-10T05:45:15.772Z,21.20
2022-08-10T05:48:54.255Z,21.70
2022-08-10T05:50:35.023Z,22.00
2022-08-10T05:53:56.734Z,22.30
2022-08-10T05:55:49.836Z,22.20
2022-08-10T05:58:18.425Z,22.40
2022-08-10T06:00:50.236Z,22.20
2022-08-10T06:03:24.164Z,22.00
2022-08-10T06:05:54.234Z,22.10
2022-08-10T06:08:24.164Z,22.30
2022-08-10T06:12:24.024Z,23.10
2022-08-10T06:14:13.696Z,23.50
2022-08-10T06:16:43.908Z,23.60
2022-08-10T06:19:14.606Z,23.10
2022-08-10T06:22:00.832Z,23.70
2022-08-10T06:24:32.650Z,24.00
2022-08-10T06:27:00.000Z,23.90
2022-08-10T06:29:49.170Z,24.10
2022-08-10T06:32:16.730Z,24.10
2022-08-10T06:34:46.586Z,24.20
2022-08-10T06:37:16.154Z,24.50
2022-08-10T06:39:44.079Z,24.40
2022-08-10T06:42:17.582Z,24.50
2022-08-10T06:44:51.439Z,24.30
2022-08-10T06:47:23.144Z,23.80
2022-08-10T06:49:52.409Z,23.50
2022-08-10T06:52:19.945Z,23.40
2022-08-10T06:54:47.708Z,23.20
2022-08-10T06:57:18.883Z,23.10
2022-08-10T06:59:49.087Z,23.00
2022-08-10T07:02:19.920Z,22.90
2022-08-10T07:05:07.449Z,22.90
2022-08-10T07:07:36.842Z,22.90
2022-08-10T07:10:04.238Z,22.90
2022-08-10T07:12:32.082Z,22.80
2022-08-10T07:14:59.833Z,22.80
2022-08-10T07:17:27.692Z,22.80
2022-08-10T07:19:56.380Z,22.90
2022-08-10T07:23:27.115Z,22.90
2022-08-10T07:25:15.557Z,22.90
2022-08-10T07:28:00.108Z,22.90
2022-08-10T07:30:33.044Z,23.00
2022-08-10T07:33:01.398Z,23.10
2022-08-10T07:39:59.552Z,23.10
2022-08-10T07:42:31.778Z,23.20
2022-08-10T07:44:59.219Z,23.30
2022-08-10T07:47:52.422Z,23.30
2022-08-10T07:50:20.705Z,23.40
2022-08-10T07:52:51.829Z,23.40
2022-08-10T07:56:04.729Z,23.50
2022-08-10T07:58:08.122Z,23.50
2022-08-10T08:00:35.480Z,23.70
2022-08-10T08:03:03.863Z,23.80
2022-08-10T08:05:57.524Z,23.80
2022-08-10T08:08:21.608Z,23.80
2022-08-10T08:10:49.179Z,24.00
2022-08-10T08:13:17.158Z,24.10
2022-08-10T08:16:18.555Z,24.10
2022-08-10T08:18:32.237Z,24.10
2022-08-10T08:21:04.081Z,24.20
2022-08-10T08:24:08.802Z,24.30
2022-08-10T08:26:39.229Z,24.40
2022-08-10T08:29:08.635Z,24.40
2022-08-10T08:31:36.379Z,24.40
2022-08-10T08:34:21.771Z,24.50
2022-08-10T08:41:07.502Z,24.60
2022-08-10T08:43:46.335Z,24.80
2022-08-10T08:46:28.911Z,24.80
2022-08-10T08:49:11.388Z,24.90
2022-08-10T08:52:07.220Z,25.00
2022-08-10T08:54:44.780Z,25.00
2022-08-10T08:57:48.999Z,25.10
2022-08-10T09:00:10.139Z,25.20
2022-08-10T09:02:54.451Z,25.40
2022-08-10T09:05:31.072Z,25.40
2022-08-10T09:08:47.934Z,25.40
2022-08-10T09:11:30.786Z,25.50
2022-08-10T09:14:01.197Z,25.70
2022-08-10T09:16:30.605Z,25.80
2022-08-10T09:18:57.423Z,25.90
2022-08-10T09:21:27.078Z,26.00
2022-08-10T09:24:01.407Z,26.00
2022-08-10T09:26:40.496Z,26.10
2022-08-10T09:29:12.840Z,26.30
2022-08-10T09:31:55.731Z,26.50
2022-08-10T09:36:21.773Z,26.70
2022-08-10T09:38:32.316Z,26.90
2022-08-10T09:41:16.527Z,27.10
2022-08-10T09:44:02.299Z,27.30
2022-08-10T09:46:39.895Z,27.50
2022-08-10T09:49:18.904Z,27.60
2022-08-10T09:52:09.626Z,27.80
2022-08-10T09:54:46.702Z,28.00
2022-08-10T09:57:43.028Z,28.10
2022-08-10T10:00:12.603Z,28.10
2022-08-10T10:02:49.308Z,28.20
2022-08-10T10:05:19.340Z,28.40
2022-08-10T10:07:50.965Z,28.50
2022-08-10T10:10:20.436Z,28.70
2022-08-10T10:12:50.552Z,28.80
2022-08-10T10:15:24.474Z,28.90
2022-08-10T10:18:07.578Z,28.90
2022-08-10T10:20:50.191Z,28.90
2022-08-10T10:23:36.174Z,29.10
2022-08-10T10:26:17.635Z,29.10
2022-08-10T10:31:35.045Z,29.20
2022-08-10T10:34:20.515Z,29.30
2022-08-10T10:38:01.586Z,29.50
2022-08-10T10:40:14.243Z,29.60
2022-08-10T10:42:59.481Z,29.80
2022-08-10T10:45:50.783Z,30.00
2022-08-10T10:48:24.381Z,30.10
2022-08-10T10:50:56.595Z,30.20
2022-08-10T10:53:26.342Z,30.20
2022-08-10T10:56:14.754Z,30.50
2022-08-10T10:58:42.451Z,30.60
2022-08-10T11:01:18.720Z,30.60
2022-08-10T11:03:52.433Z,30.70
2022-08-10T11:06:40.632Z,30.80
2022-08-10T11:10:07.018Z,31.10
2022-08-10T11:12:11.297Z,31.10
2022-08-10T11:14:54.101Z,31.30
2022-08-10T11:17:33.073Z,31.40
2022-08-10T11:20:04.294Z,31.60
2022-08-10T11:22:41.117Z,31.90
2022-08-10T11:25:20.334Z,32.20
2022-08-10T11:27:49.838Z,32.10
2022-08-10T11:30:27.151Z,32.50
2022-08-10T11:33:30.714Z,32.00
2022-08-10T11:36:04.042Z,31.80
2022-08-10T11:42:28.719Z,32.40
2022-08-10T11:45:03.150Z,32.70
2022-08-10T11:47:39.829Z,33.00
2022-08-10T11:50:25.346Z,33.20
2022-08-10T11:53:10.528Z,33.50
2022-08-10T11:55:38.254Z,33.60
2022-08-10T12:05:46.611Z,34.10
2022-08-10T12:10:09.094Z,34.20
2022-08-10T12:15:45.536Z,34.30
2022-08-10T12:18:25.409Z,34.60
2022-08-10T12:20:56.361Z,35.00
2022-08-10T12:23:39.290Z,35.30
2022-08-10T12:26:24.524Z,35.50
2022-08-10T12:29:03.869Z,35.60
2022-08-10T12:31:51.111Z,35.80
2022-08-10T12:34:30.666Z,35.70
2022-08-10T12:40:47.669Z,35.80
2022-08-10T12:44:04.472Z,35.90
2022-08-10T12:46:27.425Z,35.90
2022-08-10T12:49:04.022Z,36.10
2022-08-10T12:51:32.892Z,36.30
2022-08-10T12:54:17.456Z,36.30
2022-08-10T12:57:02.012Z,36.40
2022-08-10T12:59:30.758Z,36.40
2022-08-10T13:02:09.715Z,36.70
2022-08-10T13:04:40.177Z,36.80
2022-08-10T13:07:07.923Z,37.00
2022-08-10T13:09:56.694Z,37.40
2022-08-10T13:12:38.680Z,37.60
2022-08-10T13:15:25.303Z,37.10
2022-08-10T13:18:03.091Z,37.10
2022-08-10T13:20:34.760Z,37.30
2022-08-10T13:23:03.214Z,37.30
2022-08-10T13:25:32.388Z,37.00
2022-08-10T13:28:37.248Z,36.10
2022-08-10T13:30:54.166Z,36.10
2022-08-10T13:34:41.632Z,36.60
2022-08-10T13:36:14.792Z,36.50
2022-08-10T13:39:19.639Z,36.80
2022-08-10T13:41:47.198Z,36.90
2022-08-10T13:44:42.273Z,36.80
2022-08-10T13:47:10.776Z,37.00
2022-08-10T13:49:46.105Z,37.00
2022-08-10T13:52:18.897Z,37.10
2022-08-10T13:54:46.961Z,36.80
2022-08-10T13:57:18.941Z,36.50
2022-08-10T14:00:34.661Z,36.80
2022-08-10T14:02:39.130Z,36.80
2022-08-10T14:05:07.189Z,37.00
2022-08-10T14:07:37.726Z,37.20
2022-08-10T14:11:09.384Z,37.10
2022-08-10T14:13:11.552Z,36.50
2022-08-10T14:15:39.222Z,36.90
2022-08-10T14:18:09.539Z,37.50
2022-08-10T14:20:37.715Z,37.80
2022-08-10T14:23:06.937Z,37.80
2022-08-10T14:25:44.501Z,37.90
2022-08-10T14:28:11.967Z,38.00
2022-08-10T14:30:39.764Z,37.90
2022-08-10T14:33:07.212Z,38.00
2022-08-10T14:36:19.216Z,38.10
2022-08-10T14:42:41.547Z,38.30
2022-08-10T14:45:20.889Z,37.70
2022-08-10T14:47:53.686Z,38.10
2022-08-10T14:50:32.550Z,38.40
2022-08-10T14:53:04.866Z,38.20
2022-08-10T14:55:58.351Z,38.30
2022-08-10T14:58:26.553Z,38.70
2022-08-10T15:00:54.690Z,38.70
2022-08-10T15:03:58.788Z,38.60
2022-08-10T15:06:17.028Z,38.50
2022-08-10T15:08:46.924Z,38.40
2022-08-10T15:12:14.760Z,38.40
2022-08-10T15:14:29.231Z,38.10
2022-08-10T15:16:53.413Z,38.10
2022-08-10T15:20:01.453Z,38.20
2022-08-10T15:22:35.774Z,37.90
2022-08-10T15:25:19.138Z,37.90
2022-08-10T15:27:55.079Z,37.90
2022-08-10T15:30:31.393Z,37.80
2022-08-10T15:33:57.557Z,38.00
2022-08-10T15:36:33.939Z,38.10
2022-08-10T15:39:02.540Z,38.40
2022-08-10T15:41:58.582Z,38.00
2022-08-10T15:44:34.976Z,38.40
2022-08-10T15:47:04.225Z,38.10
2022-08-10T15:49:34.443Z,38.20
2022-08-10T15:52:07.377Z,38.20
2022-08-10T15:54:39.629Z,38.20
2022-08-10T15:57:08.188Z,38.50
2022-08-10T15:59:44.643Z,38.60
2022-08-10T16:02:16.842Z,38.30
2022-08-10T16:04:53.509Z,38.40
2022-08-10T16:07:46.297Z,38.20
2022-08-10T16:10:26.382Z,38.00
2022-08-10T16:13:00.802Z,38.20
2022-08-10T16:15:28.690Z,38.10
2022-08-10T16:17:59.970Z,38.40
2022-08-10T16:20:28.229Z,38.60
2022-08-10T16:23:00.743Z,38.60
2022-08-10T16:25:48.367Z,38.10
2022-08-10T16:28:20.072Z,37.80
2022-08-10T16:30:54.951Z,37.50
2022-08-10T16:33:53.815Z,37.70
2022-08-10T16:36:21.980Z,38.40
2022-08-10T16:38:50.767Z,38.30
2022-08-10T16:42:02.642Z,38.30
2022-08-10T16:44:07.194Z,38.10
2022-08-10T16:46:34.539Z,37.70
2022-08-10T16:49:02.278Z,37.30
2022-08-10T16:51:30.673Z,37.30
2022-08-10T16:53:59.209Z,37.20
2022-08-10T16:56:34.246Z,37.00
2022-08-10T16:59:17.566Z,36.80
2022-08-10T17:01:51.588Z,36.30
2022-08-10T17:04:21.773Z,36.30
2022-08-10T17:06:55.866Z,35.80
2022-08-10T17:09:26.315Z,35.90
2022-08-10T17:11:54.833Z,35.60
2022-08-10T17:14:26.149Z,35.70
2022-08-10T17:16:55.541Z,35.30
2022-08-10T17:19:24.648Z,35.50
2022-08-10T17:21:57.008Z,35.70
2022-08-10T17:24:29.992Z,35.60
2022-08-10T17:28:03.843Z,35.50
2022-08-10T17:29:57.758Z,35.20
2022-08-10T17:32:32.974Z,35.20
2022-08-10T17:35:23.902Z,35.10
2022-08-10T17:37:59.042Z,35.00
2022-08-10T17:40:28.042Z,34.70
2022-08-10T17:42:56.966Z,34.70
2022-08-10T17:45:48.263Z,34.60
2022-08-10T17:48:13.447Z,34.70
2022-08-10T17:50:42.446Z,34.60
2022-08-10T17:53:15.118Z,34.40
2022-08-10T17:55:44.484Z,34.10
2022-08-10T17:58:18.438Z,34.10
2022-08-10T18:00:50.922Z,33.90
2022-08-10T18:03:25.285Z,33.80
2022-08-10T18:05:58.492Z,33.50
2022-08-10T18:08:28.125Z,33.40
2022-08-10T18:10:58.163Z,33.20
2022-08-10T18:13:27.845Z,32.80
2022-08-10T18:16:15.900Z,32.50
2022-08-10T18:18:43.231Z,32.20
2022-08-10T18:21:31.495Z,32.00
2022-08-10T18:24:05.857Z,31.80
2022-08-10T18:26:36.767Z,31.60
2022-08-10T18:29:07.014Z,31.20
2022-08-10T18:31:34.629Z,31.00
2022-08-10T18:34:02.307Z,30.90
2022-08-10T18:36:30.167Z,30.70
2022-08-10T18:38:59.681Z,30.60
2022-08-10T18:41:35.637Z,30.40
2022-08-10T18:59:11.685Z,29.60
2022-08-10T19:01:57.691Z,29.40
2022-08-10T19:08:49.179Z,29.10
2022-08-10T19:11:35.761Z,28.90
2022-08-10T19:14:10.467Z,28.70
2022-08-10T19:16:40.254Z,28.60
2022-08-10T19:19:32.417Z,28.50
2022-08-10T19:22:04.985Z,28.40
2022-08-10T19:24:49.335Z,28.20
2022-08-10T19:27:35.383Z,28.10
2022-08-10T19:30:12.393Z,28.00
2022-08-10T19:32:55.432Z,28.00
2022-08-10T19:35:34.479Z,27.90
2022-08-10T19:38:33.056Z,27.80
2022-08-10T19:41:19.494Z,27.70
2022-08-10T19:44:00.681Z,27.70
2022-08-10T19:46:44.071Z,27.60
2022-08-10T19:49:16.547Z,27.40
2022-08-10T19:52:00.701Z,27.30
2022-08-10T19:54:44.658Z,27.10
2022-08-10T19:57:11.986Z,27.10
2022-08-10T20:00:17.518Z,27.00
2022-08-10T20:02:47.032Z,27.00
2022-08-10T20:09:06.975Z,26.90
2022-08-10T20:11:44.181Z,26.80
2022-08-10T20:14:21.310Z,26.70
2022-08-10T20:16:50.213Z,26.70
2022-08-10T20:19:18.200Z,27.10
2022-08-10T20:22:02.741Z,27.20
2022-08-10T20:24:49.985Z,27.30
2022-08-10T20:27:59.120Z,27.20
2022-08-10T20:30:15.132Z,27.20
2022-08-10T20:32:48.110Z,27.30
2022-08-10T20:35:21.171Z,27.20
2022-08-10T20:38:03.550Z,27.30
2022-08-10T20:40:39.354Z,27.30
2022-08-10T20:43:29.406Z,27.10
2022-08-10T20:46:08.550Z,27.10
2022-08-10T20:48:40.936Z,27.10
2022-08-10T20:51:11.497Z,27.20
2022-08-10T20:53:41.504Z,27.10
2022-08-10T20:56:27.088Z,27.00
2022-08-10T20:58:59.709Z,27.00
2022-08-10T21:02:06.598Z,26.90
2022-08-10T21:04:44.059Z,26.90
2022-08-10T21:08:05.015Z,26.90
2022-08-10T21:10:47.975Z,26.90
2022-08-10T21:13:33.685Z,26.90
2022-08-10T21:16:03.707Z,26.80
2022-08-10T21:18:44.071Z,26.80
2022-08-10T21:21:11.763Z,26.80
2022-08-10T21:23:48.452Z,26.80
2022-08-10T21:26:19.176Z,26.70
2022-08-10T21:29:05.970Z,26.70
2022-08-10T21:31:44.815Z,26.60
2022-08-10T21:34:17.522Z,26.60
2022-08-10T21:36:50.641Z,26.60
2022-08-10T21:39:42.262Z,26.50
2022-08-10T21:42:37.823Z,26.40
2022-08-10T21:45:58.018Z,26.50
2022-08-10T21:48:37.998Z,26.50
2022-08-10T21:52:00.534Z,26.40
2022-08-10T21:54:42.620Z,26.50
2022-08-10T21:57:43.384Z,26.40
2022-08-10T22:00:31.611Z,26.50
2022-08-10T22:03:19.057Z,26.30
2022-08-10T22:06:10.484Z,26.30
2022-08-10T22:09:16.122Z,26.40
2022-08-10T22:12:03.146Z,26.40
2022-08-10T22:14:50.944Z,26.40
2022-08-10T22:18:00.650Z,26.30
2022-08-10T22:20:45.128Z,26.30
2022-08-10T22:23:41.469Z,26.30
2022-08-10T22:26:36.692Z,26.20
2022-08-10T22:29:26.104Z,26.20
2022-08-10T22:32:41.111Z,26.30
2022-08-10T22:35:32.975Z,26.20
2022-08-10T22:38:24.505Z,26.20
2022-08-10T22:41:10.349Z,26.30
2022-08-10T22:43:57.298Z,26.20
2022-08-10T22:46:44.060Z,26.20
2022-08-10T22:49:11.397Z,26.10
2022-08-10T22:51:40.356Z,26.10
2022-08-10T22:55:09.178Z,26.10
2022-08-10T22:58:02.229Z,26.10
2022-08-10T23:00:33.734Z,26.10
2022-08-10T23:03:21.831Z,26.00
2022-08-10T23:05:55.708Z,26.10
2022-08-10T23:12:18.269Z,26.10
2022-08-10T23:14:59.405Z,26.00
2022-08-10T23:18:00.979Z,26.00
2022-08-10T23:20:28.662Z,25.90
2022-08-10T23:23:00.009Z,26.00
2022-08-10T23:25:30.294Z,25.90
2022-08-10T23:28:00.942Z,25.90
2022-08-10T23:30:35.993Z,25.90
2022-08-10T23:33:05.012Z,25.90
2022-08-10T23:36:30.146Z,25.90
2022-08-10T23:38:30.008Z,25.80
2022-08-10T23:40:59.667Z,25.80
2022-08-10T23:55:19.244Z,25.70
2022-08-10T23:57:52.540Z,25.80
